Details From OBBI - Bahrain Intl
To OTBD - Doha Intl
Flight Number -
Tags Generated Routegen
Created
Modified
Stats Distance 77 nm / 143 km
Max Altitude 100 ft / 30 m
Waypoints 7
Social Downloads 0
Likes 0
Share VATSIM

Download

Looking for another format? Having issues loading an existing format? Contact us
Advertisement - Login to hide

Notes

Departing runway 12 OBBI. Arriving runway 15 OTBD.

Route

OBBI +26.22_+050.72 +26.18_+050.76 +25.84_+051.07 +25.39_+051.48 +25.35_+051.53 OTBD

ID Type Via Altitude Latitude Longitude Leg Dist Tot Dist Heading (true) Name
O OBBI APT - 0 ft / 0 m 26.26128˚ 50.65017˚ - 0 nm - -
+26.22_+050.72 LATLON - 100 ft / 30 m 26.22211˚ 50.71801˚ 4 nm 4 nm 123° / 123° -
+26.18_+050.76 LATLON - 100 ft / 30 m 26.17602˚ 50.75705˚ 3 nm 7 nm 143° / 143° -
+25.84_+051.07 LATLON - 100 ft / 30 m 25.83520˚ 51.07191˚ 26 nm 34 nm 140° / 140° -
+25.39_+051.48 LATLON - 100 ft / 30 m 25.39057˚ 51.48410˚ 34 nm 69 nm 140° / 140° -
+25.35_+051.53 LATLON - 100 ft / 30 m 25.34742˚ 51.52680˚ 3 nm 72 nm 138° / 138° -
O OTBD APT - 0 ft / 0 m 25.28022˚ 51.55653˚ 4 nm 77 nm 158° / 158° -

Altitude Profile

Advertisement - Login to hide

OBBI

Details ICAO OBBI (BAH)
Name BAHRAIN INTL
Region Bahrain
Timezone Asia/Bahrain (UTC+3.0)
Stats Elevation 6 ft / 2 m (AMSL)
Location 26.267837° 50.637095°
Runways 2
Magnetic Variation 2.762° E

METAR

OBBI 181330Z 33010KT CAVOK 22/14 Q1022 NOSIG

Decode

TAF

TAF OBBI 180500Z 1806/1912 34010KT 9999 FEW030= TAF OMAA 180500Z 1806/1912 VRB02KT 8000 FEW040 BECMG 1806/1807 35012KT PROB30 TEMPO 1806/1808 VRB15G25KT 4500 BLDU FEW050TCU BECMG 1818/1820 VRB02KT BECMG 1905/1907 35010KT

Decode

Departure Runways

ID Width Length Bearing (true) Bearing (mag) Surface Threshold Offset Overrun Length
12L 197 ft / 60 m 12,893 ft / 3,930 m 122.74° 119.98° Asphalt 1,000 ft / 305 m 0 ft / 0 m
12R 148 ft / 45 m 8,303 ft / 2,531 m 122.76° 120.00° Asphalt 1,000 ft / 305 m 0 ft / 0 m
30L 148 ft / 45 m 8,303 ft / 2,531 m 302.77° 300.01° Asphalt 395 ft / 120 m 0 ft / 0 m
30R 197 ft / 60 m 12,893 ft / 3,930 m 302.75° 299.99° Asphalt 1,000 ft / 305 m 0 ft / 0 m

OTBD

Details ICAO OTBD (DOH)
Name DOHA INTL
Region Qatar
Timezone Asia/Qatar (UTC+3.0)
Stats Elevation 35 ft / 11 m (AMSL)
Location 25.261056° 51.564999°
Runways 1
Magnetic Variation 2.482° E

METAR

OTBD 181300Z 01008KT 9999 FEW030 23/14 Q1020 NOSIG

Decode

TAF

TAF OTBD 181106Z 1812/1918 02010KT CAVOK TEMPO 1812/1818 9999 FEW035 BECMG 1816/1818 31009KT PROB30 TEMPO 1821/1904 4000 HZ

Decode

Destination Runways

ID Width Length Bearing (true) Bearing (mag) Surface Threshold Offset Overrun Length
16 151 ft / 46 m 15,065 ft / 4,592 m 158.20° 155.72° Asphalt 2,460 ft / 750 m 98 ft / 30 m
34 151 ft / 46 m 15,065 ft / 4,592 m 338.21° 335.73° Asphalt 0 ft / 0 m 460 ft / 140 m

Approach Navaids

Runway Type Ident Frequency Range Bearing (true) Bearing (mag) Slope Elevation
34 Localiser IBD 109.50 MHz 18 nm / 33 km 338.32° 335.84° - 38 ft / 12 m (AMSL)
34 Glidescope IBD 109.50 MHz 10 nm / 19 km 338.21° 335.73° 3.00° 35 ft / 11 m (AMSL)
34 DME IBD 109.50 MHz 18 nm / 33 km - - - 35 ft / 11 m (AMSL)

Popular Alternatives